Time;durP1;ratioP1;P1;durP2;ratioP2;P2;SDS_P1;SDS_P2;PMS_P1;PMS_P2;Temp;Humidity;BMP_temperature;BMP_pressure;BME280_temperature;BME280_humidity;BME280_pressure;Samples;Min_cycle;Max_cycle;Signal;HPM_P1;HPM_P2
2022/01/27 00:01:46;;;;;;;56.67;31.23;;;;;;;0.21;100.00;97481.97;5116038;27;101936;-61
2022/01/27 00:04:18;;;;;;;57.40;29.77;;;;;;;0.16;100.00;97484.25;5116933;27;105157;-61
2022/01/27 00:06:45;;;;;;;59.87;31.43;;;;;;;0.01;100.00;97481.44;5119158;27;106529;-61
2022/01/27 00:10:02;;;;;;;59.17;31.47;;;;;;;-0.10;100.00;97486.94;5116273;27;103748;-61
2022/01/27 00:13:23;;;;;;;60.60;31.63;;;;;;;0.05;100.00;97482.75;5115986;27;105408;-61
2022/01/27 00:15:59;;;;;;;63.03;32.87;;;;;;;-0.04;100.00;97475.06;5116310;27;101820;-61
2022/01/27 00:18:45;;;;;;;56.87;30.30;;;;;;;-0.13;100.00;97483.84;5116223;27;105021;-61
2022/01/27 00:21:14;;;;;;;64.07;31.43;;;;;;;-0.08;100.00;97481.56;5134601;27;102765;-61
2022/01/27 00:23:44;;;;;;;62.97;32.43;;;;;;;-0.12;100.00;97486.31;5115728;27;101883;-61
2022/01/27 00:26:11;;;;;;;62.53;31.30;;;;;;;-0.28;100.00;97484.59;5116301;27;105489;-61
2022/01/27 00:29:16;;;;;;;67.30;33.13;;;;;;;-0.23;100.00;97472.69;5114846;27;105044;-61
2022/01/27 00:31:42;;;;;;;62.73;32.97;;;;;;;-0.20;100.00;97465.34;5119784;27;101739;-61
2022/01/27 00:34:10;;;;;;;61.57;31.80;;;;;;;-0.38;100.00;97459.41;5115355;27;105705;-61
2022/01/27 00:36:38;;;;;;;60.93;32.20;;;;;;;-0.43;100.00;97459.03;5116031;27;101721;-61
2022/01/27 00:39:06;;;;;;;64.17;32.80;;;;;;;-0.48;100.00;97451.84;5115896;27;103618;-61
2022/01/27 00:42:05;;;;;;;120.97;34.80;;;;;;;-0.44;100.00;97453.97;5115473;27;105376;-61
2022/01/27 00:44:32;;;;;;;99.53;33.83;;;;;;;-0.64;100.00;97449.13;5115774;27;101843;-61
2022/01/27 00:46:58;;;;;;;71.90;33.00;;;;;;;-0.50;100.00;97459.03;5115640;27;105597;-61
2022/01/27 00:49:36;;;;;;;73.20;32.20;;;;;;;-0.46;100.00;97461.16;5115255;27;103798;-61
2022/01/27 00:52:08;;;;;;;58.10;31.47;;;;;;;-0.33;100.00;97471.19;5115788;27;101888;-61
2022/01/27 00:54:35;;;;;;;57.00;30.67;;;;;;;-0.37;100.00;97478.53;5118735;27;104872;-61
2022/01/27 00:57:08;;;;;;;64.30;32.00;;;;;;;-0.54;100.00;97468.97;5115645;27;101893;-61
2022/01/27 00:59:52;;;;;;;62.87;30.40;;;;;;;-0.66;100.00;97472.00;5115563;27;106227;-61
2022/01/27 01:02:29;;;;;;;127.27;34.27;;;;;;;-0.54;100.00;97471.59;5114610;27;105319;-61
2022/01/27 01:05:08;;;;;;;60.03;31.13;;;;;;;-0.57;100.00;97471.03;5115602;27;101785;-61
2022/01/27 01:07:52;;;;;;;62.30;31.37;;;;;;;-0.40;100.00;97467.56;5115621;27;104025;-61
2022/01/27 01:11:10;;;;;;;132.90;35.50;;;;;;;-0.43;100.00;97477.34;5114879;27;105981;-61
2022/01/27 01:16:43;;;;;;;75.40;33.97;;;;;;;-0.26;100.00;97488.69;5069307;27;102817;-61
2022/01/27 01:19:30;;;;;;;83.57;34.57;;;;;;;-0.08;100.00;97486.81;5109093;27;105644;-61
2022/01/27 01:29:21;;;;;;;60.73;32.77;;;;;;;-0.14;100.00;97476.97;5115157;27;105354;-61
2022/01/27 01:31:28;;;;;;;50.87;29.77;;;;;;;-0.50;100.00;97480.72;5052236;27;105598;-61
2022/01/27 01:34:11;;;;;;;55.53;29.97;;;;;;;-0.33;100.00;97479.81;5111168;27;105105;-61
2022/01/27 01:36:46;;;;;;;63.23;32.03;;;;;;;-0.32;100.00;97471.84;5114965;27;101819;-61
2022/01/27 01:39:16;;;;;;;54.53;31.03;;;;;;;-0.20;100.00;97475.00;5114151;27;104874;-61
2022/01/27 01:41:59;;;;;;;67.07;30.80;;;;;;;-0.13;100.00;97470.78;5114041;27;105555;-61
2022/01/27 01:44:27;;;;;;;85.97;32.20;;;;;;;-0.18;100.00;97465.19;5118405;27;101775;-61
2022/01/27 01:46:55;;;;;;;63.57;31.27;;;;;;;-0.13;100.00;97463.75;5097120;27;103691;-61
2022/01/27 01:49:28;;;;;;;56.10;31.27;;;;;;;-0.24;100.00;97463.22;5133674;27;102308;-61
2022/01/27 01:51:57;;;;;;;51.10;29.70;;;;;;;-0.31;100.00;97462.22;5114723;27;103856;-61
2022/01/27 01:54:24;;;;;;;59.40;31.23;;;;;;;-0.20;100.00;97461.94;5114104;27;106331;-61
2022/01/27 01:56:52;;;;;;;87.57;31.10;;;;;;;-0.29;100.00;97456.84;5114664;27;102070;-61
2022/01/27 01:59:26;;;;;;;60.37;31.57;;;;;;;-0.29;100.00;97457.63;5133506;27;101712;-61
2022/01/27 02:01:53;;;;;;;59.00;31.10;;;;;;;-0.31;100.00;97454.38;5113947;27;104021;-61
2022/01/27 02:04:20;;;;;;;53.97;30.83;;;;;;;-0.19;100.00;97453.09;5118166;27;101881;-61
2022/01/27 02:06:51;;;;;;;58.07;30.17;;;;;;;-0.24;100.00;97459.78;5113819;27;105537;-61
2022/01/27 02:09:51;;;;;;;53.10;28.70;;;;;;;-0.17;100.00;97451.13;5114486;27;101842;-61
2022/01/27 02:18:20;;;;;;;62.37;30.20;;;;;;;-0.29;100.00;97449.00;5114434;27;101845;-61
2022/01/27 02:20:49;;;;;;;69.63;31.00;;;;;;;-0.54;100.00;97448.06;5114397;27;103775;-61
2022/01/27 02:23:17;;;;;;;101.93;30.13;;;;;;;-0.69;100.00;97449.63;5132271;27;102672;-61
2022/01/27 02:25:45;;;;;;;99.60;30.00;;;;;;;-0.66;100.00;97453.72;5114271;27;101839;-61
2022/01/27 02:28:25;;;;;;;58.13;30.73;;;;;;;-0.83;100.00;97444.94;5135803;27;102305;-61
2022/01/27 02:30:52;;;;;;;77.07;29.37;;;;;;;-0.79;100.00;97458.50;5133211;27;101761;-61
2022/01/27 02:33:29;;;;;;;49.23;27.57;;;;;;;-0.86;100.00;97447.88;5114051;27;103595;-61
2022/01/27 02:35:58;;;;;;;50.77;26.07;;;;;;;-0.91;100.00;97439.69;5113521;27;104195;-61
2022/01/27 02:38:38;;;;;;;56.50;26.77;;;;;;;-0.91;100.00;97437.09;5114017;27;101904;-61
2022/01/27 02:41:08;;;;;;;126.80;30.47;;;;;;;-0.90;100.00;97433.50;5114300;27;105193;-61
2022/01/27 02:43:35;;;;;;;60.87;28.67;;;;;;;-0.92;100.00;97432.84;5113592;27;104400;-61
2022/01/27 02:46:09;;;;;;;127.47;30.37;;;;;;;-0.83;100.00;97434.50;5113801;27;101841;-61
2022/01/27 02:49:25;;;;;;;63.90;29.77;;;;;;;-0.77;100.00;97436.50;5113804;27;105212;-61
2022/01/27 02:51:54;;;;;;;73.07;29.67;;;;;;;-0.85;100.00;97444.31;5116438;27;105825;-61
2022/01/27 02:54:21;;;;;;;61.17;28.37;;;;;;;-0.93;100.00;97431.19;5113936;27;105130;-61
2022/01/27 02:56:48;;;;;;;63.07;30.27;;;;;;;-0.87;100.00;97427.97;5131942;27;104561;-61
2022/01/27 02:59:20;;;;;;;93.93;31.40;;;;;;;-0.80;100.00;97425.53;5096284;27;102240;-61
2022/01/27 03:01:49;;;;;;;56.73;30.53;;;;;;;-0.95;100.00;97421.88;5114857;27;101878;-61
2022/01/27 03:04:18;;;;;;;81.20;32.93;;;;;;;-0.93;100.00;97428.56;5112556;27;105485;-61
2022/01/27 03:06:46;;;;;;;56.73;29.73;;;;;;;-0.81;100.00;97424.75;5113568;27;102382;-61
2022/01/27 03:09:32;;;;;;;55.60;30.70;;;;;;;-0.78;100.00;97426.22;5113763;27;104768;-61
2022/01/27 03:15:25;;;;;;;59.40;29.97;;;;;;;-0.81;100.00;97426.53;5135876;27;101988;-61
2022/01/27 03:18:18;;;;;;;56.40;29.17;;;;;;;-0.73;100.00;97421.38;5112923;27;105506;-60
2022/01/27 03:20:45;;;;;;;56.17;30.43;;;;;;;-0.82;100.00;97420.47;5113248;27;102019;-61
2022/01/27 03:23:12;;;;;;;59.83;30.50;;;;;;;-0.93;100.00;97415.50;5113043;27;104831;-61
2022/01/27 03:25:41;;;;;;;62.03;28.70;;;;;;;-1.05;100.00;97411.53;5112879;27;105767;-61
2022/01/27 03:28:19;;;;;;;60.27;29.30;;;;;;;-1.02;100.00;97403.41;5113041;27;102336;-61
2022/01/27 03:30:46;;;;;;;63.97;29.27;;;;;;;-0.94;100.00;97411.28;5113605;27;104726;-61
2022/01/27 03:33:13;;;;;;;87.60;32.33;;;;;;;-1.03;100.00;97396.56;5112909;27;105774;-61
2022/01/27 03:35:40;;;;;;;56.87;28.97;;;;;;;-1.12;100.00;97394.84;5113281;27;102390;-61
2022/01/27 03:38:25;;;;;;;62.00;29.57;;;;;;;-1.02;100.00;97389.53;5134993;27;102936;-61
2022/01/27 03:40:54;;;;;;;53.60;28.53;;;;;;;-0.99;100.00;97395.25;5113139;27;101914;-61
2022/01/27 03:43:21;;;;;;;55.57;29.93;;;;;;;-0.97;100.00;97384.66;5113304;27;104721;-61
2022/01/27 03:45:48;;;;;;;54.40;28.83;;;;;;;-0.85;100.00;97384.25;5112569;27;103932;-61
2022/01/27 03:48:17;;;;;;;50.63;28.00;;;;;;;-0.90;100.00;97381.28;5113075;27;101829;-60
2022/01/27 03:50:45;;;;;;;51.13;27.13;;;;;;;-0.96;100.00;97392.34;5113121;27;104652;-61
2022/01/27 03:53:12;;;;;;;46.37;27.00;;;;;;;-0.93;100.00;97397.25;5112462;27;106522;-61
2022/01/27 03:55:39;;;;;;;48.47;26.80;;;;;;;-1.12;100.00;97387.03;5112955;27;101794;-61
2022/01/27 03:58:10;;;;;;;45.03;25.73;;;;;;;-0.91;100.00;97390.09;5112894;27;105050;-61
2022/01/27 04:00:37;;;;;;;43.87;25.30;;;;;;;-0.89;100.00;97392.56;5115091;27;101844;-61
2022/01/27 04:03:05;;;;;;;37.10;23.23;;;;;;;-0.96;100.00;97388.91;5113687;27;105357;-61
2022/01/27 04:05:37;;;;;;;37.27;23.10;;;;;;;-1.06;100.00;97373.38;5115835;27;105968;-60
2022/01/27 04:08:56;;;;;;;35.03;22.13;;;;;;;-1.18;100.00;97373.78;5116644;27;101844;-61
2022/01/27 04:12:04;;;;;;;34.40;22.13;;;;;;;-1.20;100.00;97386.16;5116441;27;105219;-61
2022/01/27 04:14:33;;;;;;;32.27;20.93;;;;;;;-1.13;100.00;97372.34;5115960;27;105355;-61
2022/01/27 04:17:00;;;;;;;31.20;19.83;;;;;;;-1.15;100.00;97376.09;5116212;27;101913;-61
2022/01/27 04:20:17;;;;;;;33.10;19.83;;;;;;;-1.21;100.00;97377.50;5116345;27;104393;-61
2022/01/27 04:22:44;;;;;;;31.60;19.57;;;;;;;-1.23;100.00;97376.84;5119079;27;103834;-61
2022/01/27 04:25:13;;;;;;;30.67;20.23;;;;;;;-1.19;100.00;97383.41;5116298;27;104786;-61
2022/01/27 04:27:59;;;;;;;34.20;20.80;;;;;;;-1.31;100.00;97400.25;5115452;27;105699;-61
2022/01/27 04:30:27;;;;;;;34.30;19.63;;;;;;;-1.24;100.00;97390.03;5116073;27;101724;-61
2022/01/27 04:32:57;;;;;;;28.27;18.83;;;;;;;-1.36;100.00;97379.06;5116086;27;104754;-61
2022/01/27 04:35:27;;;;;;;33.63;20.57;;;;;;;-1.36;100.00;97366.00;5115536;27;105485;-61
2022/01/27 04:38:09;;;;;;;35.77;21.07;;;;;;;-1.32;100.00;97361.31;5115981;27;101902;-61
2022/01/27 04:40:42;;;;;;;34.83;21.00;;;;;;;-1.37;100.00;97369.56;5115918;27;105991;-61
2022/01/27 04:43:31;;;;;;;38.47;20.93;;;;;;;-1.41;100.00;97357.81;5114988;27;105279;-61
2022/01/27 04:46:07;;;;;;;37.03;21.83;;;;;;;-1.39;100.00;97361.09;5113043;27;101863;-61
2022/01/27 04:48:59;;;;;;;42.33;22.47;;;;;;;-1.33;100.00;97355.25;5109018;27;104232;-61
2022/01/27 04:51:26;;;;;;;42.33;24.57;;;;;;;-1.46;100.00;97349.63;5100001;27;102114;-61
2022/01/27 04:54:00;;;;;;;39.03;23.47;;;;;;;-1.46;100.00;97349.63;5096835;27;103879;-61
2022/01/27 04:56:29;;;;;;;41.77;23.10;;;;;;;-1.57;100.00;97346.44;5096223;27;105784;-61
2022/01/27 05:02:29;;;;;;;39.67;22.43;;;;;;;-1.68;100.00;97339.69;5109001;27;106345;-61
2022/01/27 05:04:56;;;;;;;37.30;22.10;;;;;;;-1.56;100.00;97333.25;5119114;27;105125;-61
2022/01/27 05:07:26;;;;;;;41.60;22.90;;;;;;;-1.55;100.00;97336.66;5115040;27;101984;-61
2022/01/27 05:09:58;;;;;;;38.17;23.23;;;;;;;-1.55;100.00;97340.09;5118001;27;104813;-61
2022/01/27 05:12:33;;;;;;;44.57;25.13;;;;;;;-1.60;100.00;97342.34;5108282;27;102334;-61
2022/01/27 05:15:00;;;;;;;36.23;21.50;;;;;;;-1.54;100.00;97339.13;5114298;27;105244;-61
2022/01/27 05:17:34;;;;;;;34.23;21.50;;;;;;;-1.64;100.00;97333.19;5114859;27;105363;-61
2022/01/27 05:20:01;;;;;;;40.90;22.43;;;;;;;-1.56;100.00;97338.47;5115241;27;101711;-61
2022/01/27 05:22:28;;;;;;;38.73;23.00;;;;;;;-1.47;100.00;97332.34;5114954;27;105142;-61
2022/01/27 05:24:55;;;;;;;37.47;22.83;;;;;;;-1.47;100.00;97331.53;5133649;27;102661;-61
2022/01/27 05:27:45;;;;;;;34.97;22.50;;;;;;;-1.49;100.00;97336.88;5115141;27;101926;-60
2022/01/27 05:30:12;;;;;;;34.67;21.43;;;;;;;-1.56;100.00;97332.44;5115051;27;105232;-60
2022/01/27 05:32:41;;;;;;;32.67;20.67;;;;;;;-1.62;100.00;97327.81;5137074;27;102524;-60
2022/01/27 05:35:09;;;;;;;32.77;20.60;;;;;;;-1.62;100.00;97328.66;5115214;27;105021;-61
2022/01/27 05:38:06;;;;;;;32.70;20.30;;;;;;;-1.73;100.00;97317.66;5114546;27;105216;-61
2022/01/27 05:40:34;;;;;;;28.97;18.87;;;;;;;-1.70;100.00;97315.56;5115018;27;101868;-61
2022/01/27 05:43:21;;;;;;;30.07;20.43;;;;;;;-1.68;100.00;97312.78;5114702;27;104873;-61
2022/01/27 05:45:49;;;;;;;32.93;19.67;;;;;;;-1.73;100.00;97299.41;5114437;27;105028;-61
2022/01/27 05:48:29;;;;;;;31.07;20.17;;;;;;;-1.76;100.00;97290.09;5114814;27;101875;-61
2022/01/27 05:50:56;;;;;;;30.33;18.80;;;;;;;-1.73;100.00;97286.34;5114911;27;105155;-61
2022/01/27 05:53:23;;;;;;;29.03;18.63;;;;;;;-1.75;100.00;97285.69;5114256;27;105140;-61
2022/01/27 05:55:51;;;;;;;31.93;18.93;;;;;;;-1.71;100.00;97294.88;5118111;27;101849;-60
2022/01/27 05:58:25;;;;;;;27.93;18.60;;;;;;;-1.72;100.00;97294.03;5113970;27;105429;-61
2022/01/27 06:00:52;;;;;;;27.77;17.83;;;;;;;-1.70;100.00;97288.69;5114316;27;102060;-61
2022/01/27 06:03:19;;;;;;;30.40;19.27;;;;;;;-1.68;100.00;97279.72;5114599;27;105291;-61
2022/01/27 06:05:47;;;;;;;29.27;18.57;;;;;;;-1.74;100.00;97277.75;5113956;27;106671;-61
2022/01/27 06:08:19;;;;;;;24.67;16.90;;;;;;;-1.67;100.00;97276.16;5114621;27;101936;-61
2022/01/27 06:10:46;;;;;;;24.97;16.47;;;;;;;-1.71;100.00;97279.22;5133586;27;102913;-61
2022/01/27 06:13:33;;;;;;;23.47;16.37;;;;;;;-1.68;100.00;97264.09;5132368;27;103675;-61
2022/01/27 06:16:02;;;;;;;25.23;16.67;;;;;;;-1.61;100.00;97259.88;5118219;27;102092;-60
2022/01/27 06:18:49;;;;;;;25.80;16.50;;;;;;;-1.63;100.00;97254.00;5132674;27;102490;-60
2022/01/27 06:21:18;;;;;;;22.07;15.17;;;;;;;-1.55;100.00;97261.88;5114589;27;102040;-60
2022/01/27 06:23:45;;;;;;;22.27;15.30;;;;;;;-1.46;100.00;97250.53;5114062;27;105598;-60
2022/01/27 06:26:12;;;;;;;22.30;15.50;;;;;;;-1.56;100.00;97255.03;5112920;27;105995;-60
2022/01/27 06:28:47;;;;;;;20.37;14.10;;;;;;;-1.49;100.00;97256.03;5113720;27;101863;-60
2022/01/27 06:31:14;;;;;;;21.73;14.67;;;;;;;-1.52;100.00;97253.75;5114344;27;105079;-60
2022/01/27 06:33:41;;;;;;;22.37;14.70;;;;;;;-1.43;100.00;97244.97;5132412;27;104512;-60
2022/01/27 06:36:08;;;;;;;21.23;15.27;;;;;;;-1.56;100.00;97255.03;5114106;27;101914;-60
2022/01/27 06:38:54;;;;;;;20.27;14.23;;;;;;;-1.53;100.00;97248.69;5116917;27;103657;-60
2022/01/27 06:41:28;;;;;;;16.87;13.03;;;;;;;-1.39;100.00;97248.91;5132555;27;101839;-60
2022/01/27 06:43:57;;;;;;;16.37;12.90;;;;;;;-1.41;100.00;97242.22;5114007;27;104808;-60
2022/01/27 06:46:24;;;;;;;15.27;12.47;;;;;;;-1.45;100.00;97259.16;5113376;27;105220;-60
2022/01/27 06:49:33;;;;;;;15.47;11.73;;;;;;;-1.44;100.00;97252.94;5113925;27;101779;-60
2022/01/27 06:52:00;;;;;;;18.03;12.00;;;;;;;-1.37;100.00;97249.56;5113907;27;105308;-60
2022/01/27 06:54:29;;;;;;;15.17;10.93;;;;;;;-1.31;100.00;97238.50;5113402;27;105577;-60
2022/01/27 06:56:56;;;;;;;13.10;10.80;;;;;;;-1.29;100.00;97241.78;5113768;27;102255;-60
2022/01/27 06:59:27;;;;;;;14.20;11.03;;;;;;;-1.23;100.00;97256.81;5114168;27;104001;-60
2022/01/27 07:01:54;;;;;;;16.70;11.60;;;;;;;-1.11;100.00;97252.94;5116490;27;105340;-60
2022/01/27 07:04:21;;;;;;;12.80;10.37;;;;;;;-1.05;100.00;97246.31;5113805;27;105596;-60
2022/01/27 07:06:48;;;;;;;15.73;11.87;;;;;;;-1.08;100.00;97263.09;5113160;27;105509;-60
2022/01/27 07:09:39;;;;;;;12.67;10.50;;;;;;;-0.92;100.00;97250.09;5113407;27;101880;-60
2022/01/27 07:12:10;;;;;;;13.70;9.60;;;;;;;-0.95;100.00;97250.41;5113473;27;103530;-60
2022/01/27 07:14:38;;;;;;;10.87;8.70;;;;;;;-0.94;100.00;97246.00;5113907;27;105539;-61
2022/01/27 07:17:04;;;;;;;11.07;8.57;;;;;;;-0.86;100.00;97236.41;5114732;27;101911;-61
2022/01/27 07:19:49;;;;;;;9.93;8.57;;;;;;;-0.82;100.00;97235.09;5114652;27;104256;-61
2022/01/27 07:22:16;;;;;;;9.07;7.87;;;;;;;-0.81;100.00;97241.97;5113825;27;105091;-61
2022/01/27 07:24:45;;;;;;;9.97;7.73;;;;;;;-0.68;100.00;97239.72;5117920;27;101981;-61
2022/01/27 07:27:13;;;;;;;12.60;9.20;;;;;;;-0.74;100.00;97242.13;5113502;27;105439;-61
2022/01/27 07:29:54;;;;;;;10.37;8.53;;;;;;;-0.64;100.00;97238.41;5114258;27;101864;-61
2022/01/27 07:32:21;;;;;;;13.07;10.20;;;;;;;-0.67;100.00;97233.50;5133541;27;102521;-61
2022/01/27 07:34:48;;;;;;;15.07;11.43;;;;;;;-0.71;100.00;97226.97;5112937;27;104078;-60
2022/01/27 07:37:15;;;;;;;15.30;11.03;;;;;;;-0.57;100.00;97242.00;5114218;27;102412;-61
2022/01/27 07:39:44;;;;;;;13.80;10.37;;;;;;;-0.56;100.00;97227.16;5116866;27;105625;-61
2022/01/27 07:42:24;;;;;;;14.70;10.93;;;;;;;-0.57;100.00;97235.97;5116427;27;105655;-61
2022/01/27 07:44:51;;;;;;;13.87;10.63;;;;;;;-0.39;100.00;97253.13;5117001;27;101873;-60
2022/01/27 07:47:25;;;;;;;14.67;11.50;;;;;;;-0.52;100.00;97238.91;5120063;27;105299;-61
2022/01/27 07:49:52;;;;;;;16.63;12.47;;;;;;;-0.43;100.00;97237.94;5116892;27;101787;-61
2022/01/27 07:52:20;;;;;;;15.97;12.43;;;;;;;-0.60;100.00;97263.22;5116575;27;103672;-61
2022/01/27 07:54:49;;;;;;;21.57;15.07;;;;;;;-0.53;100.00;97238.09;5116070;27;105718;-61
2022/01/27 07:57:16;;;;;;;22.07;14.27;;;;;;;-0.40;100.00;97243.66;5116690;27;101909;-61
2022/01/27 07:59:44;;;;;;;19.17;14.77;;;;;;;-0.41;100.00;97252.50;5116806;27;105269;-61
2022/01/27 08:02:11;;;;;;;26.83;18.03;;;;;;;-0.38;100.00;97244.34;5115545;27;105650;-61
2022/01/27 08:04:37;;;;;;;23.83;15.43;;;;;;;-0.17;100.00;97248.09;5116446;27;101999;-61
2022/01/27 08:07:05;;;;;;;17.93;12.40;;;;;;;-0.28;100.00;97244.19;5116646;27;103725;-61
2022/01/27 08:09:48;;;;;;;18.00;13.03;;;;;;;-0.11;100.00;97251.84;5119363;27;105777;-61
2022/01/27 08:12:21;;;;;;;17.63;13.10;;;;;;;-0.18;100.00;97247.44;5116374;27;105171;-61
2022/01/27 08:14:49;;;;;;;17.47;12.90;;;;;;;-0.09;100.00;97265.59;5115843;27;105441;-61
2022/01/27 08:17:17;;;;;;;16.07;11.83;;;;;;;0.09;100.00;97263.59;5116327;27;101772;-61
2022/01/27 08:19:44;;;;;;;13.90;10.60;;;;;;;0.22;100.00;97238.59;5116376;27;104897;-61
2022/01/27 08:22:11;;;;;;;14.90;10.07;;;;;;;0.36;100.00;97260.63;5115234;27;105409;-61
2022/01/27 08:24:38;;;;;;;12.53;10.70;;;;;;;0.67;100.00;97258.94;5115974;27;101849;-61
2022/01/27 08:27:07;;;;;;;14.83;11.43;;;;;;;0.73;100.00;97273.97;5116089;27;104895;-61
2022/01/27 08:33:04;;;;;;;14.37;10.27;;;;;;;1.02;100.00;97263.72;5116062;27;105119;-61
2022/01/27 08:35:32;;;;;;;19.27;11.07;;;;;;;1.20;100.00;97257.25;5115684;27;104130;-61
2022/01/27 08:38:05;;;;;;;14.87;10.67;;;;;;;1.31;100.00;97266.56;5116168;27;102027;-60
2022/01/27 08:40:32;;;;;;;15.83;11.07;;;;;;;1.47;100.00;97262.03;5115979;27;105204;-60
2022/01/27 08:43:15;;;;;;;12.97;9.77;;;;;;;1.36;100.00;97258.97;5134385;27;102574;-60
2022/01/27 08:45:42;;;;;;;12.33;10.37;;;;;;;1.67;100.00;97250.13;5116995;27;101695;-60
2022/01/27 08:48:49;;;;;;;12.87;9.90;;;;;;;1.73;100.00;97251.22;5115708;27;105361;-60
2022/01/27 08:51:21;;;;;;;10.50;8.33;;;;;;;1.75;100.00;97252.66;5116399;27;105394;-60
2022/01/27 08:53:48;;;;;;;10.23;8.57;;;;;;;1.74;100.00;97247.59;5139266;27;101705;-60
2022/01/27 08:56:16;;;;;;;11.87;8.80;;;;;;;1.55;100.00;97242.81;5116002;27;105489;-60
2022/01/27 08:59:02;;;;;;;13.87;8.73;;;;;;;1.62;100.00;97249.00;5116730;27;101938;-60
2022/01/27 09:01:29;;;;;;;11.43;8.07;;;;;;;1.99;100.00;97235.94;5116471;27;105193;-60
2022/01/27 09:03:56;;;;;;;10.07;8.17;;;;;;;2.12;100.00;97254.50;5134895;27;103024;-60
2022/01/27 09:06:28;;;;;;;10.80;8.20;;;;;;;2.23;100.00;97246.22;5116336;27;101886;-60
2022/01/27 09:08:56;;;;;;;15.33;9.27;;;;;;;1.81;100.00;97249.34;5116232;27;103769;-60
2022/01/27 09:11:43;;;;;;;12.27;9.37;;;;;;;1.75;100.00;97241.38;5115913;27;104926;-61
2022/01/27 09:14:11;;;;;;;11.30;8.80;;;;;;;1.75;100.00;97244.81;5116576;27;102244;-61
2022/01/27 09:16:39;;;;;;;15.60;10.07;;;;;;;2.05;100.00;97236.06;5118989;27;104932;-61
2022/01/27 09:19:47;;;;;;;13.43;10.70;;;;;;;2.01;100.00;97241.81;5115254;27;101895;-61
2022/01/27 09:22:18;;;;;;;12.20;10.47;;;;;;;2.23;100.00;97235.72;5115255;27;104917;-60
2022/01/27 09:24:55;;;;;;;14.60;10.30;;;;;;;2.56;100.00;97231.81;5114610;27;105327;-61
2022/01/27 09:27:23;;;;;;;14.27;11.03;;;;;;;2.88;100.00;97231.41;5115297;27;101782;-61
2022/01/27 09:29:51;;;;;;;15.40;11.67;;;;;;;2.96;100.00;97223.47;5134057;27;102299;-61
2022/01/27 09:32:18;;;;;;;14.53;10.83;;;;;;;2.81;100.00;97228.72;5133402;27;103204;-61
2022/01/27 09:34:46;;;;;;;17.47;12.10;;;;;;;2.95;100.00;97225.25;5133917;27;102226;-61
2022/01/27 09:37:15;;;;;;;14.43;10.27;;;;;;;2.83;100.00;97220.63;5133806;27;101730;-61
2022/01/27 09:39:43;;;;;;;13.73;10.50;;;;;;;3.26;100.00;97230.28;5136659;27;104398;-61
2022/01/27 09:42:14;;;;;;;12.03;9.07;;;;;;;3.37;100.00;97214.88;5115023;27;105513;-61
2022/01/27 09:44:44;;;;;;;12.03;9.40;;;;;;;3.15;100.00;97210.56;5134386;27;102581;-61
2022/01/27 09:47:15;;;;;;;12.50;9.43;;;;;;;3.62;100.00;97199.56;5134746;27;101765;-61
2022/01/27 09:49:49;;;;;;;10.83;8.70;;;;;;;3.15;100.00;97199.22;5134560;27;102345;-60
2022/01/27 09:52:18;;;;;;;11.77;8.30;;;;;;;3.36;100.00;97189.56;5134132;27;102699;-61
2022/01/27 09:54:45;;;;;;;10.60;8.73;;;;;;;3.38;100.00;97181.50;5134534;27;101821;-60
2022/01/27 09:57:16;;;;;;;9.67;8.37;;;;;;;3.54;100.00;97194.41;5134635;27;102833;-61
2022/01/27 09:59:43;;;;;;;10.57;7.80;;;;;;;3.90;100.00;97184.63;5114920;27;105954;-61
2022/01/27 10:02:15;;;;;;;10.63;8.07;;;;;;;4.23;100.00;97188.34;5117600;27;102026;-61
2022/01/27 10:04:44;;;;;;;6.90;5.60;;;;;;;4.37;100.00;97188.25;5114989;27;105123;-60
2022/01/27 10:07:14;;;;;;;8.17;5.43;;;;;;;4.32;100.00;97176.66;5115583;27;102040;-61
2022/01/27 10:10:04;;;;;;;9.83;4.43;;;;;;;4.42;100.00;97174.50;5134085;27;102860;-61
2022/01/27 10:12:37;;;;;;;6.77;4.77;;;;;;;4.63;100.00;97169.19;5108359;27;105584;-61
2022/01/27 10:15:07;;;;;;;7.73;4.67;;;;;;;4.97;100.00;97155.97;5115260;27;101902;-61
2022/01/27 10:18:12;;;;;;;6.50;4.53;;;;;;;4.82;100.00;97148.19;5115515;27;106297;-61
2022/01/27 10:20:42;;;;;;;5.33;4.10;;;;;;;4.64;100.00;97149.72;5114648;27;105613;-61
2022/01/27 10:23:19;;;;;;;7.93;4.67;;;;;;;4.80;100.00;97152.84;5114982;27;102054;-61
2022/01/27 10:25:51;;;;;;;6.47;4.40;;;;;;;4.76;100.00;97138.41;5118624;27;106157;-61
2022/01/27 10:31:41;;;;;;;4.30;3.60;;;;;;;5.12;100.00;97152.16;5115127;27;105167;-61
2022/01/27 10:34:10;;;;;;;4.77;3.80;;;;;;;5.36;100.00;97150.81;5114609;27;105703;-61
2022/01/27 10:36:40;;;;;;;4.07;3.67;;;;;;;5.34;100.00;97151.00;5115079;27;101964;-61
2022/01/27 10:39:48;;;;;;;4.63;3.50;;;;;;;5.36;99.08;97137.63;5115198;27;105231;-61
2022/01/27 10:42:23;;;;;;;4.10;3.70;;;;;;;5.52;99.51;97134.63;5114362;27;105850;-61
2022/01/27 10:44:56;;;;;;;5.30;3.80;;;;;;;5.78;96.62;97139.94;5114844;27;102004;-61
2022/01/27 10:47:29;;;;;;;4.60;3.47;;;;;;;5.85;91.53;97140.78;5136545;27;103973;-61
2022/01/27 10:49:59;;;;;;;7.10;4.07;;;;;;;6.20;93.28;97129.78;5114831;27;101803;-61
2022/01/27 10:52:37;;;;;;;6.57;3.90;;;;;;;6.47;92.95;97118.16;5115003;27;103878;-61
2022/01/27 10:55:09;;;;;;;5.13;4.03;;;;;;;6.42;89.41;97120.63;5114237;27;104601;-61
2022/01/27 10:57:50;;;;;;;4.73;3.70;;;;;;;6.23;84.79;97123.28;5114796;27;102095;-61
2022/01/27 11:00:19;;;;;;;7.13;4.10;;;;;;;6.61;91.06;97111.00;5114571;27;104902;-61
2022/01/27 11:02:51;;;;;;;5.73;3.60;;;;;;;6.73;81.44;97104.06;5113994;27;105652;-61
2022/01/27 11:05:18;;;;;;;5.03;3.90;;;;;;;7.12;85.47;97096.78;5114756;27;101947;-61
2022/01/27 11:07:48;;;;;;;4.10;3.40;;;;;;;7.27;78.68;97099.13;5114657;27;105680;-61
2022/01/27 11:10:16;;;;;;;6.00;3.77;;;;;;;7.44;78.53;97098.44;5117454;27;105290;-61
2022/01/27 11:13:19;;;;;;;7.37;3.00;;;;;;;7.22;69.04;97091.03;5114179;27;106262;-61
2022/01/27 11:15:46;;;;;;;3.10;2.83;;;;;;;7.35;68.64;97090.94;5113944;27;106430;-61
2022/01/27 11:18:23;;;;;;;4.83;2.97;;;;;;;7.77;70.65;97091.06;5133507;27;101752;-61
2022/01/27 11:20:56;;;;;;;4.30;3.13;;;;;;;7.91;66.84;97079.31;5133745;27;102863;-61
2022/01/27 11:23:59;;;;;;;5.57;3.30;;;;;;;7.99;64.67;97075.59;5132916;27;102525;-61
2022/01/27 11:26:26;;;;;;;3.23;2.60;;;;;;;8.02;64.56;97086.56;5133470;27;101601;-61
2022/01/27 11:28:59;;;;;;;5.10;3.07;;;;;;;7.98;60.49;97080.09;5133292;27;102502;-61
2022/01/27 11:31:40;;;;;;;5.00;2.77;;;;;;;8.08;60.00;97083.03;5132628;27;102630;-61
2022/01/27 11:34:10;;;;;;;5.97;3.07;;;;;;;8.04;60.12;97084.53;5100545;27;101931;-61
2022/01/27 11:36:38;;;;;;;4.40;3.10;;;;;;;7.95;59.36;97085.00;5113602;27;106001;-61
2022/01/27 11:39:19;;;;;;;5.53;2.83;;;;;;;8.28;59.44;97085.56;5133534;27;101870;-61
2022/01/27 11:41:53;;;;;;;4.53;2.90;;;;;;;8.29;58.83;97077.38;5114291;27;104015;-61
2022/01/27 11:44:28;;;;;;;4.33;3.00;;;;;;;8.38;58.70;97075.25;5132335;27;102924;-63
2022/01/27 11:47:20;;;;;;;5.00;3.00;;;;;;;8.74;58.66;97076.09;5133146;27;101886;-68
2022/01/27 11:49:54;;;;;;;4.73;3.10;;;;;;;8.74;58.75;97073.44;5132408;27;102894;-61
2022/01/27 11:52:22;;;;;;;6.47;2.67;;;;;;;8.73;57.82;97073.66;5132806;27;102560;-61
2022/01/27 11:54:49;;;;;;;4.23;2.20;;;;;;;9.09;57.30;97070.94;5132956;27;101753;-61
2022/01/27 11:57:41;;;;;;;4.40;2.43;;;;;;;9.15;57.49;97057.59;5116834;27;103992;-61
2022/01/27 12:00:13;;;;;;;3.23;2.27;;;;;;;9.02;55.62;97056.94;5132823;27;101786;-61
2022/01/27 12:03:12;;;;;;;4.57;2.90;;;;;;;9.40;56.83;97049.47;5113815;27;105669;-61
2022/01/27 12:05:41;;;;;;;8.70;2.70;;;;;;;9.41;54.49;97041.28;5132194;27;102794;-61
2022/01/27 12:08:37;;;;;;;3.83;2.50;;;;;;;9.74;54.17;97036.28;5132739;27;101776;-61
2022/01/27 12:11:56;;;;;;;3.47;2.30;;;;;;;9.89;54.10;97025.19;5132539;27;102624;-61